Time;durP1;ratioP1;P1;durP2;ratioP2;P2;SDS_P1;SDS_P2;PMS_P1;PMS_P2;Temp;Humidity;BMP_temperature;BMP_pressure;BME280_temperature;BME280_humidity;BME280_pressure;Samples;Min_cycle;Max_cycle;Signal;HPM_P1;HPM_P2
2022/10/01 00:02:12;;;;;;;0.10;0.10;;;;;;;11.19;59.71;97601.50;8035669;29;20246;-79
2022/10/01 00:06:17;;;;;;;0.00;0.00;;;;;;;11.31;59.46;97611.22;8035382;29;20262;-79
2022/10/01 00:10:20;;;;;;;0.10;0.10;;;;;;;11.22;60.63;97622.09;8035376;29;20246;-79
2022/10/01 00:14:23;;;;;;;0.10;0.10;;;;;;;11.24;60.29;97622.84;8035356;29;20237;-79
2022/10/01 00:18:28;;;;;;;0.10;0.10;;;;;;;11.32;59.97;97626.69;8034239;29;20247;-78
2022/10/01 00:22:32;;;;;;;0.10;0.10;;;;;;;11.46;59.69;97620.78;8034628;29;20243;-79
2022/10/01 00:26:36;;;;;;;0.10;0.10;;;;;;;11.48;59.85;97618.94;8034818;29;20243;-79
2022/10/01 00:30:46;;;;;;;0.00;0.00;;;;;;;11.58;59.59;97621.06;8034791;29;20391;-79
2022/10/01 00:34:51;;;;;;;0.10;0.10;;;;;;;11.51;60.12;97630.91;8034282;29;20234;-79
2022/10/01 00:38:57;;;;;;;0.10;0.10;;;;;;;11.43;60.35;97617.53;8034527;29;20239;-79
2022/10/01 00:43:00;;;;;;;0.03;0.03;;;;;;;11.48;60.12;97608.56;8034296;29;20300;-79
2022/10/01 00:47:06;;;;;;;0.10;0.10;;;;;;;11.34;60.45;97613.66;8034160;29;20242;-78
2022/10/01 00:51:12;;;;;;;0.10;0.10;;;;;;;11.36;60.42;97614.41;8033739;29;20238;-79
2022/10/01 00:55:18;;;;;;;0.10;0.10;;;;;;;11.33;60.17;97607.63;8033775;29;20235;-79
2022/10/01 00:59:21;;;;;;;0.10;0.10;;;;;;;11.49;60.38;97597.28;8033843;29;20238;-79
2022/10/01 01:03:24;;;;;;;0.10;0.10;;;;;;;11.39;60.72;97596.09;8032446;29;20250;-79
2022/10/01 01:07:29;;;;;;;0.00;0.00;;;;;;;11.45;60.22;97594.94;8033088;29;20234;-78
2022/10/01 01:11:36;;;;;;;0.10;0.10;;;;;;;11.52;60.66;97597.13;8033816;29;20254;-79
2022/10/01 01:15:41;;;;;;;0.10;0.10;;;;;;;11.57;60.59;97612.41;8033371;29;20246;-79
2022/10/01 01:19:58;;;;;;;0.10;0.10;;;;;;;11.60;60.21;97595.88;8033335;29;20254;-79
2022/10/01 01:24:12;;;;;;;0.10;0.10;;;;;;;11.63;59.73;97587.91;8033185;29;20429;-79
2022/10/01 01:28:21;;;;;;;0.10;0.10;;;;;;;11.58;59.90;97593.34;8033040;29;20230;-79
2022/10/01 01:32:26;;;;;;;0.10;0.10;;;;;;;11.50;60.10;97587.75;8033189;29;20238;-79
2022/10/01 01:36:36;;;;;;;0.10;0.10;;;;;;;11.51;60.06;97584.22;8032256;29;20234;-79
2022/10/01 01:40:40;;;;;;;0.10;0.10;;;;;;;11.39;60.05;97583.13;8032862;29;20235;-79
2022/10/01 01:44:48;;;;;;;0.10;0.10;;;;;;;11.44;60.22;97581.13;8033021;29;20238;-79
2022/10/01 01:48:52;;;;;;;0.10;0.10;;;;;;;11.40;59.96;97582.19;8032244;29;20242;-79
2022/10/01 01:52:55;;;;;;;0.10;0.10;;;;;;;11.30;59.93;97578.44;8032626;29;20354;-79
2022/10/01 01:56:58;;;;;;;0.10;0.10;;;;;;;11.35;60.09;97574.69;8032404;29;20548;-79
2022/10/01 02:01:03;;;;;;;0.10;0.10;;;;;;;11.21;60.57;97565.97;8032469;29;20235;-79
2022/10/01 02:05:08;;;;;;;0.10;0.10;;;;;;;11.17;60.55;97564.47;8032254;29;20598;-78
2022/10/01 02:09:16;;;;;;;0.10;0.10;;;;;;;11.24;60.04;97552.84;8031871;29;20243;-79
2022/10/01 02:13:24;;;;;;;0.10;0.10;;;;;;;11.12;60.47;97549.16;8031934;29;20242;-79
2022/10/01 02:17:33;;;;;;;0.10;0.10;;;;;;;11.02;60.65;97542.78;8031117;29;20234;-78
2022/10/01 02:21:40;;;;;;;0.10;0.10;;;;;;;11.15;60.27;97546.41;8031449;29;20446;-79
2022/10/01 02:25:48;;;;;;;0.10;0.10;;;;;;;11.12;60.24;97533.63;8031650;29;20433;-79
2022/10/01 02:29:51;;;;;;;0.10;0.10;;;;;;;11.08;60.34;97545.91;8031632;29;20230;-79
2022/10/01 02:33:56;;;;;;;0.10;0.10;;;;;;;11.02;60.36;97532.41;8031587;29;20262;-79
2022/10/01 02:38:01;;;;;;;0.10;0.10;;;;;;;11.04;60.11;97538.34;8030983;29;20423;-79
2022/10/01 02:42:06;;;;;;;0.10;0.10;;;;;;;11.02;59.69;97538.44;8031273;29;20234;-79
2022/10/01 02:46:14;;;;;;;0.10;0.10;;;;;;;11.05;59.52;97529.66;8031167;29;20378;-79
2022/10/01 02:50:20;;;;;;;0.10;0.10;;;;;;;10.94;60.01;97538.81;8030983;29;20239;-79
2022/10/01 02:54:31;;;;;;;0.10;0.10;;;;;;;11.04;59.64;97541.81;8030799;29;20227;-79
2022/10/01 02:58:35;;;;;;;0.10;0.10;;;;;;;10.94;60.02;97543.19;8030524;29;20250;-78
2022/10/01 03:02:38;;;;;;;0.10;0.10;;;;;;;10.80;60.45;97525.78;8030748;29;20243;-78
2022/10/01 03:06:42;;;;;;;0.10;0.10;;;;;;;10.62;60.81;97529.31;8030580;29;20513;-79
2022/10/01 03:10:45;;;;;;;0.10;0.10;;;;;;;10.57;61.28;97525.22;8030326;29;20265;-79
2022/10/01 03:14:48;;;;;;;0.10;0.10;;;;;;;10.80;60.62;97519.78;8030389;29;20246;-79
2022/10/01 03:18:51;;;;;;;0.10;0.10;;;;;;;10.12;62.43;97523.16;8030521;29;20246;-79
2022/10/01 03:22:56;;;;;;;0.10;0.10;;;;;;;10.33;62.24;97516.94;8030389;29;20430;-79
2022/10/01 03:26:59;;;;;;;0.10;0.10;;;;;;;10.60;60.81;97521.63;8029565;29;20334;-79
2022/10/01 03:31:07;;;;;;;0.10;0.10;;;;;;;10.64;60.67;97520.56;8030274;29;20242;-79
2022/10/01 03:35:10;;;;;;;0.10;0.10;;;;;;;10.69;60.64;97510.78;8030050;29;20238;-79
2022/10/01 03:39:14;;;;;;;0.10;0.10;;;;;;;10.63;61.13;97521.47;8030196;29;20246;-79
2022/10/01 03:43:17;;;;;;;0.10;0.10;;;;;;;10.78;60.59;97516.44;8030036;29;20403;-79
2022/10/01 03:47:21;;;;;;;0.10;0.10;;;;;;;10.84;60.79;97514.34;8029964;29;20549;-79
2022/10/01 03:51:24;;;;;;;0.10;0.10;;;;;;;10.98;60.64;97502.41;8029888;29;20522;-79
2022/10/01 03:55:28;;;;;;;0.10;0.10;;;;;;;10.99;60.28;97496.31;8029301;29;20475;-79
2022/10/01 03:59:31;;;;;;;0.10;0.10;;;;;;;10.87;61.08;97484.84;8029598;29;20253;-78
2022/10/01 04:03:34;;;;;;;0.10;0.10;;;;;;;10.90;61.12;97482.91;8029766;29;20284;-79
2022/10/01 04:07:36;;;;;;;0.10;0.10;;;;;;;10.99;60.88;97488.56;8029608;29;20246;-79
2022/10/01 04:11:40;;;;;;;0.10;0.10;;;;;;;11.07;60.50;97482.03;8029719;29;20247;-78
2022/10/01 04:15:43;;;;;;;0.10;0.10;;;;;;;11.09;60.69;97481.94;8029552;29;20415;-79
2022/10/01 04:19:46;;;;;;;0.00;0.00;;;;;;;11.10;60.83;97487.03;8029436;29;20247;-79
2022/10/01 04:23:49;;;;;;;0.10;0.10;;;;;;;11.07;60.86;97491.56;8029320;29;20306;-79
2022/10/01 04:27:58;;;;;;;0.10;0.10;;;;;;;11.09;60.82;97484.53;8029391;29;20231;-79
2022/10/01 04:32:02;;;;;;;0.10;0.10;;;;;;;11.20;60.91;97476.19;8029288;29;20295;-79
2022/10/01 04:36:05;;;;;;;0.10;0.10;;;;;;;11.22;61.26;97471.75;8029275;29;20431;-80
2022/10/01 04:40:09;;;;;;;0.10;0.10;;;;;;;11.30;61.08;97460.03;8033358;29;20542;-78
2022/10/01 04:44:13;;;;;;;0.10;0.10;;;;;;;11.33;61.41;97469.41;8034702;29;20235;-79
2022/10/01 04:48:16;;;;;;;0.10;0.10;;;;;;;11.32;61.49;97471.13;8034263;29;20245;-79
2022/10/01 04:52:18;;;;;;;0.10;0.10;;;;;;;11.36;61.73;97482.19;8034661;29;20268;-79
2022/10/01 04:56:21;;;;;;;0.10;0.10;;;;;;;11.36;61.68;97479.59;8034516;29;20234;-79
2022/10/01 05:00:25;;;;;;;0.10;0.10;;;;;;;11.34;61.87;97474.47;8034245;29;20333;-79
2022/10/01 05:04:28;;;;;;;0.10;0.10;;;;;;;11.37;61.78;97473.50;8033797;29;20553;-78
2022/10/01 05:08:30;;;;;;;0.10;0.10;;;;;;;11.38;61.86;97474.31;8033643;29;20246;-78
2022/10/01 05:12:33;;;;;;;0.10;0.10;;;;;;;11.39;61.77;97469.06;8033905;29;20239;-79
2022/10/01 05:16:37;;;;;;;0.10;0.10;;;;;;;11.32;61.85;97459.94;8033498;29;20242;-79
2022/10/01 05:20:40;;;;;;;0.00;0.00;;;;;;;11.42;61.88;97478.41;8033931;29;20238;-79
2022/10/01 05:24:43;;;;;;;0.10;0.10;;;;;;;11.26;61.96;97479.25;8033681;29;20242;-79
2022/10/01 05:28:46;;;;;;;0.10;0.10;;;;;;;11.35;62.20;97483.94;8033508;29;20246;-79
2022/10/01 05:32:55;;;;;;;0.10;0.10;;;;;;;11.39;62.07;97492.41;8033344;29;20291;-79
2022/10/01 05:36:58;;;;;;;0.10;0.10;;;;;;;11.41;62.30;97484.53;8033259;29;20307;-79
2022/10/01 05:41:01;;;;;;;0.10;0.10;;;;;;;10.91;64.10;97484.59;8032984;29;20295;-79
2022/10/01 05:45:04;;;;;;;0.10;0.10;;;;;;;11.30;63.26;97477.34;8033210;29;20530;-79
2022/10/01 05:49:09;;;;;;;0.10;0.10;;;;;;;11.28;63.36;97466.22;8031977;29;20459;-79
2022/10/01 05:53:12;;;;;;;0.10;0.10;;;;;;;11.26;63.34;97474.06;8032472;29;20246;-79
2022/10/01 05:57:15;;;;;;;0.10;0.10;;;;;;;11.45;62.96;97473.06;8032660;29;20235;-79
2022/10/01 06:01:18;;;;;;;0.10;0.10;;;;;;;10.93;65.16;97464.63;8032437;29;20238;-79
2022/10/01 06:05:22;;;;;;;0.10;0.10;;;;;;;10.83;65.46;97465.19;8032448;29;20557;-79
2022/10/01 06:09:25;;;;;;;0.10;0.10;;;;;;;10.75;65.28;97456.06;8032430;29;20405;-79
2022/10/01 06:13:28;;;;;;;0.10;0.10;;;;;;;10.60;66.56;97448.28;8031843;29;20243;-78
2022/10/01 06:17:30;;;;;;;0.10;0.10;;;;;;;10.88;65.33;97445.06;8031737;29;20238;-79
2022/10/01 06:21:34;;;;;;;0.10;0.10;;;;;;;10.64;66.53;97442.88;8031958;29;20534;-79
2022/10/01 06:25:39;;;;;;;0.10;0.10;;;;;;;11.10;64.92;97434.38;8031435;29;20270;-79
2022/10/01 06:29:41;;;;;;;0.10;0.10;;;;;;;11.09;64.98;97437.88;8031734;29;20238;-78
2022/10/01 06:33:44;;;;;;;0.10;0.10;;;;;;;10.79;65.81;97450.75;8031506;29;20272;-79
2022/10/01 06:37:48;;;;;;;0.10;0.10;;;;;;;11.08;64.55;97438.78;8031532;29;20518;-79
2022/10/01 06:41:51;;;;;;;0.10;0.10;;;;;;;11.07;64.63;97440.56;8031427;29;20446;-79
2022/10/01 06:45:54;;;;;;;0.10;0.10;;;;;;;11.31;63.83;97445.31;8031630;29;20247;-83
2022/10/01 06:49:58;;;;;;;0.10;0.10;;;;;;;11.23;64.59;97450.09;8030986;29;20235;-79
2022/10/01 06:54:02;;;;;;;0.10;0.10;;;;;;;10.61;66.27;97444.81;8030784;29;20530;-79
2022/10/01 06:58:07;;;;;;;0.10;0.10;;;;;;;10.93;66.15;97435.31;8030781;29;20238;-79
2022/10/01 07:02:14;;;;;;;0.10;0.10;;;;;;;10.82;65.71;97437.63;8030577;29;20266;-79
2022/10/01 07:06:17;;;;;;;0.10;0.10;;;;;;;10.81;66.97;97439.38;8030468;29;20314;-79
2022/10/01 07:10:22;;;;;;;0.10;0.10;;;;;;;10.41;67.61;97438.06;8030620;29;20405;-79
2022/10/01 07:14:24;;;;;;;0.10;0.10;;;;;;;10.92;66.45;97439.63;8030908;29;20242;-79
2022/10/01 07:18:27;;;;;;;0.10;0.10;;;;;;;11.04;66.34;97438.16;8029841;29;20602;-78
2022/10/01 07:22:30;;;;;;;0.10;0.10;;;;;;;11.21;65.47;97432.00;8030137;29;20238;-78
2022/10/01 07:26:34;;;;;;;0.10;0.10;;;;;;;11.49;64.66;97435.66;8030515;29;20534;-79
2022/10/01 07:30:37;;;;;;;0.10;0.10;;;;;;;11.49;64.98;97430.50;8030574;29;20239;-79
2022/10/01 07:34:40;;;;;;;0.10;0.10;;;;;;;11.50;64.97;97443.38;8030431;29;20242;-79
2022/10/01 07:38:44;;;;;;;0.10;0.10;;;;;;;11.63;64.43;97440.94;8030611;29;20314;-79
2022/10/01 07:42:54;;;;;;;0.10;0.10;;;;;;;11.63;64.46;97446.13;8030831;29;20245;-79
2022/10/01 07:46:57;;;;;;;0.10;0.10;;;;;;;11.63;65.62;97440.06;8031007;29;20392;-79
2022/10/01 07:51:00;;;;;;;0.10;0.10;;;;;;;11.71;65.05;97438.72;8030322;29;20238;-79
2022/10/01 07:55:04;;;;;;;0.10;0.10;;;;;;;11.80;64.75;97441.69;8030748;29;20537;-79
2022/10/01 07:59:09;;;;;;;0.10;0.10;;;;;;;11.82;65.08;97443.31;8030364;29;20247;-79
2022/10/01 08:03:12;;;;;;;0.10;0.10;;;;;;;11.81;65.14;97441.63;8030637;29;20261;-78
2022/10/01 08:07:14;;;;;;;0.10;0.10;;;;;;;11.96;64.89;97450.31;8030336;29;20557;-78
2022/10/01 08:11:17;;;;;;;0.10;0.10;;;;;;;11.87;65.80;97443.03;8030219;29;20521;-79
2022/10/01 08:15:21;;;;;;;0.10;0.10;;;;;;;11.84;65.98;97444.03;8034973;29;20239;-79
2022/10/01 08:19:24;;;;;;;0.10;0.10;;;;;;;11.82;66.32;97435.53;8035605;29;20230;-79
2022/10/01 08:23:27;;;;;;;0.10;0.10;;;;;;;11.79;66.22;97424.47;8035365;29;20295;-79
2022/10/01 08:27:30;;;;;;;0.10;0.10;;;;;;;11.96;65.94;97432.16;8035541;29;20239;-79
2022/10/01 08:31:35;;;;;;;0.10;0.10;;;;;;;11.72;66.78;97423.97;8035208;29;20467;-79
2022/10/01 08:35:39;;;;;;;0.10;0.10;;;;;;;11.88;67.03;97435.16;8034867;29;20243;-79
2022/10/01 08:39:41;;;;;;;0.10;0.10;;;;;;;11.90;67.21;97425.56;8034826;29;20243;-80
2022/10/01 08:43:44;;;;;;;0.10;0.10;;;;;;;11.96;67.21;97426.97;8034937;29;20239;-79
2022/10/01 08:47:54;;;;;;;0.10;0.10;;;;;;;12.05;66.54;97417.78;8034811;29;20251;-79
2022/10/01 08:52:01;;;;;;;0.10;0.10;;;;;;;11.77;67.62;97411.59;8034621;29;20267;-79
2022/10/01 08:56:04;;;;;;;0.10;0.10;;;;;;;11.93;67.17;97409.78;8034672;29;20239;-79
2022/10/01 09:00:11;;;;;;;0.10;0.10;;;;;;;12.04;67.38;97400.56;8034691;29;20530;-79
2022/10/01 09:04:16;;;;;;;0.10;0.10;;;;;;;11.98;67.98;97400.91;8034184;29;20242;-79
2022/10/01 09:08:42;;;;;;;0.10;0.10;;;;;;;11.93;68.24;97396.81;8033838;29;20349;-78
2022/10/01 09:12:48;;;;;;;0.10;0.10;;;;;;;11.90;68.59;97388.41;8033667;29;20298;-78
2022/10/01 09:16:57;;;;;;;0.10;0.10;;;;;;;11.90;68.57;97381.44;8033725;29;20260;-79
2022/10/01 09:21:01;;;;;;;0.10;0.10;;;;;;;12.02;68.23;97371.25;8033688;29;20254;-79
2022/10/01 09:25:12;;;;;;;0.10;0.10;;;;;;;11.91;68.97;97359.75;8032226;29;20231;-79
2022/10/01 09:29:19;;;;;;;0.10;0.10;;;;;;;11.82;69.63;97354.25;8033313;29;20242;-78
2022/10/01 09:33:23;;;;;;;0.10;0.10;;;;;;;11.92;69.10;97358.00;8033074;29;20254;-78
2022/10/01 09:37:31;;;;;;;0.10;0.10;;;;;;;11.85;70.36;97338.50;8032903;29;20303;-78
2022/10/01 09:41:33;;;;;;;0.10;0.10;;;;;;;11.98;69.73;97343.84;8033296;29;20306;-79
2022/10/01 09:45:37;;;;;;;0.10;0.10;;;;;;;12.07;69.46;97345.84;8033231;29;20272;-79
2022/10/01 09:49:42;;;;;;;0.10;0.10;;;;;;;11.98;70.13;97339.47;8033051;29;20239;-78
2022/10/01 09:54:01;;;;;;;0.10;0.10;;;;;;;12.15;69.04;97343.66;8032821;29;20596;-78
2022/10/01 09:58:08;;;;;;;0.10;0.10;;;;;;;12.13;69.22;97342.91;8033099;29;20587;-79
2022/10/01 10:02:19;;;;;;;0.10;0.10;;;;;;;12.07;68.82;97346.72;8032897;29;20595;-79
2022/10/01 10:06:26;;;;;;;0.10;0.10;;;;;;;12.00;69.54;97332.44;8032369;29;20246;-79
2022/10/01 10:10:34;;;;;;;0.10;0.10;;;;;;;12.07;69.65;97341.50;8033115;29;20246;-79
2022/10/01 10:14:39;;;;;;;0.10;0.10;;;;;;;12.06;70.01;97337.25;8032983;29;20480;-79
2022/10/01 10:18:42;;;;;;;0.10;0.10;;;;;;;12.17;69.26;97323.63;8032543;29;20367;-79
2022/10/01 10:22:45;;;;;;;0.10;0.10;;;;;;;12.01;70.48;97341.03;8032552;29;20253;-78
2022/10/01 10:26:54;;;;;;;0.10;0.10;;;;;;;12.33;68.73;97328.69;8032647;29;20239;-79
2022/10/01 10:30:57;;;;;;;0.10;0.10;;;;;;;12.35;68.84;97341.59;8032232;29;20242;-79
2022/10/01 10:35:03;;;;;;;0.10;0.10;;;;;;;12.43;68.70;97323.75;8032068;29;20266;-79
2022/10/01 10:39:10;;;;;;;0.10;0.10;;;;;;;12.51;68.73;97322.38;8032009;29;20234;-79
2022/10/01 10:43:19;;;;;;;0.10;0.10;;;;;;;12.45;68.93;97308.91;8031721;29;20266;-79
2022/10/01 10:47:23;;;;;;;0.00;0.00;;;;;;;12.33;69.55;97305.31;8032248;29;20241;-78
2022/10/01 10:51:27;;;;;;;0.00;0.00;;;;;;;12.51;69.00;97311.97;8031533;29;20242;-78
2022/10/01 10:55:31;;;;;;;0.10;0.10;;;;;;;12.35;69.78;97308.66;8032201;29;20258;-78
2022/10/01 10:59:35;;;;;;;0.10;0.10;;;;;;;12.32;69.76;97303.69;8031854;29;20243;-79
2022/10/01 11:03:42;;;;;;;0.10;0.10;;;;;;;12.45;69.51;97288.16;8031766;29;20243;-78
2022/10/01 11:07:47;;;;;;;0.10;0.10;;;;;;;12.55;69.72;97286.66;8031547;29;20246;-79
2022/10/01 11:11:55;;;;;;;0.10;0.10;;;;;;;12.55;70.04;97298.81;8031725;29;20234;-79
2022/10/01 11:16:12;;;;;;;0.10;0.10;;;;;;;12.68;69.69;97299.72;8031684;29;20363;-78
2022/10/01 11:20:28;;;;;;;0.10;0.10;;;;;;;12.66;69.65;97298.94;8031409;29;20258;-79
2022/10/01 11:24:58;;;;;;;0.10;0.10;;;;;;;12.88;69.65;97298.41;8031097;29;20511;-78
2022/10/01 11:29:16;;;;;;;0.03;0.03;;;;;;;12.85;70.28;97298.59;7991779;29;20247;-79
2022/10/01 11:33:29;;;;;;;0.10;0.10;;;;;;;13.17;68.89;97288.72;8031477;29;20319;-78
2022/10/01 11:37:42;;;;;;;0.00;0.00;;;;;;;13.26;69.64;97295.91;8031196;29;20235;-79
2022/10/01 11:41:46;;;;;;;0.10;0.10;;;;;;;13.21;69.58;97300.63;8031503;29;20239;-80
2022/10/01 11:45:51;;;;;;;0.10;0.10;;;;;;;13.23;69.67;97296.16;8031340;29;20239;-79
2022/10/01 11:49:58;;;;;;;0.10;0.10;;;;;;;13.25;69.62;97289.06;8035467;29;20234;-80
2022/10/01 11:54:06;;;;;;;0.10;0.10;;;;;;;13.22;69.69;97296.25;8037251;29;20470;-79
2022/10/01 12:02:41;;;;;;;0.10;0.10;;;;;;;13.19;69.88;97286.84;8036569;29;20258;-80
2022/10/01 12:06:53;;;;;;;0.10;0.10;;;;;;;13.31;69.28;97290.47;8036563;29;20247;-80
2022/10/01 12:11:00;;;;;;;0.10;0.10;;;;;;;13.23;70.09;97292.69;8037052;29;20235;-80
2022/10/01 12:15:09;;;;;;;0.10;0.10;;;;;;;13.31;70.04;97293.06;8036695;29;20253;-80
2022/10/01 12:19:16;;;;;;;0.10;0.10;;;;;;;13.41;70.33;97299.31;8036481;29;20429;-80
2022/10/01 12:23:22;;;;;;;0.10;0.10;;;;;;;13.33;70.59;97292.94;8036629;29;20234;-79
2022/10/01 12:27:46;;;;;;;0.10;0.10;;;;;;;13.70;69.49;97296.53;8036494;29;20279;-80
2022/10/01 12:31:56;;;;;;;0.10;0.10;;;;;;;13.60;70.96;97295.50;8036184;29;20227;-79
2022/10/01 12:36:05;;;;;;;0.10;0.10;;;;;;;13.74;70.80;97295.38;8036128;29;20501;-79
2022/10/01 12:40:23;;;;;;;0.00;0.00;;;;;;;13.81;70.73;97290.59;8036167;29;20251;-80
2022/10/01 12:44:45;;;;;;;0.03;0.03;;;;;;;13.84;71.62;97298.19;8035451;29;20227;-79
2022/10/01 12:48:58;;;;;;;0.00;0.00;;;;;;;13.89;71.62;97294.34;8036031;29;20419;-79
2022/10/01 12:53:15;;;;;;;0.00;0.00;;;;;;;13.93;70.95;97291.53;8035726;29;20239;-80
2022/10/01 12:57:46;;;;;;;0.00;0.00;;;;;;;13.87;71.45;97285.78;8035688;29;20239;-78
2022/10/01 13:01:58;;;;;;;0.00;0.00;;;;;;;14.10;70.62;97291.19;8035034;29;20227;-80
2022/10/01 13:06:12;;;;;;;0.00;0.00;;;;;;;14.06;71.17;97300.97;8035125;29;20647;-80
2022/10/01 13:10:30;;;;;;;0.00;0.00;;;;;;;14.00;71.18;97311.00;8035252;29;20311;-80
2022/10/01 13:14:34;;;;;;;0.00;0.00;;;;;;;13.79;71.81;97308.91;8034632;29;20235;-80
2022/10/01 13:18:50;;;;;;;0.03;0.03;;;;;;;13.74;72.18;97320.56;8034791;29;20299;-80
2022/10/01 13:22:57;;;;;;;0.00;0.00;;;;;;;13.88;71.79;97326.50;8034759;29;20242;-80
2022/10/01 13:27:04;;;;;;;0.10;0.10;;;;;;;13.76;72.38;97321.31;8034584;29;20226;-81
2022/10/01 13:31:13;;;;;;;0.10;0.10;;;;;;;13.77;72.50;97328.19;8034738;29;20238;-80
2022/10/01 13:35:26;;;;;;;0.00;0.00;;;;;;;13.73;72.61;97326.69;8034407;29;20295;-80
2022/10/01 13:39:34;;;;;;;0.00;0.00;;;;;;;13.72;72.83;97322.44;8034095;29;20262;-80
2022/10/01 13:43:48;;;;;;;0.00;0.00;;;;;;;13.96;72.53;97320.78;8034164;29;20250;-80
2022/10/01 13:47:52;;;;;;;0.00;0.00;;;;;;;13.91;72.64;97328.06;8034276;29;20235;-80
2022/10/01 13:51:56;;;;;;;0.10;0.10;;;;;;;13.93;72.39;97317.56;8034050;29;20234;-80
2022/10/01 13:55:59;;;;;;;0.10;0.10;;;;;;;14.03;72.30;97331.59;8033877;29;20246;-80
2022/10/01 14:00:20;;;;;;;0.10;0.10;;;;;;;14.00;72.52;97334.44;8033622;29;20238;-80
2022/10/01 14:04:31;;;;;;;0.10;0.10;;;;;;;14.00;72.90;97331.81;8033381;29;20239;-80
2022/10/01 14:08:38;;;;;;;0.10;0.10;;;;;;;14.00;72.26;97331.81;8032681;29;20249;-80
2022/10/01 14:17:03;;;;;;;0.00;0.00;;;;;;;13.85;73.02;97347.53;8033358;29;20222;-80
2022/10/01 14:21:20;;;;;;;0.03;0.03;;;;;;;13.98;72.51;97344.13;8033359;29;20235;-80
2022/10/01 14:25:31;;;;;;;0.00;0.00;;;;;;;13.99;72.48;97353.56;8033187;29;20238;-80
2022/10/01 14:29:43;;;;;;;0.00;0.00;;;;;;;13.91;72.67;97366.28;8032590;29;20263;-80
2022/10/01 14:34:07;;;;;;;0.10;0.10;;;;;;;13.96;72.64;97359.84;8032706;29;20251;-80
2022/10/01 14:38:13;;;;;;;0.10;0.10;;;;;;;13.86;73.19;97357.03;8032687;29;20246;-80
2022/10/01 14:42:17;;;;;;;0.10;0.10;;;;;;;13.93;72.96;97359.19;8032509;29;20238;-80
2022/10/01 14:46:20;;;;;;;0.10;0.10;;;;;;;13.86;73.28;97361.41;8032614;29;20239;-79
2022/10/01 14:50:22;;;;;;;0.10;0.10;;;;;;;14.01;72.81;97369.91;8032536;29;20348;-79
2022/10/01 14:54:27;;;;;;;0.07;0.07;;;;;;;13.96;72.72;97365.03;8032547;29;20239;-78
2022/10/01 14:58:33;;;;;;;0.00;0.00;;;;;;;13.96;72.65;97370.25;8032101;29;20234;-80
2022/10/01 15:02:44;;;;;;;0.00;0.00;;;;;;;14.05;72.27;97366.16;8032081;29;20442;-80
2022/10/01 15:06:47;;;;;;;0.10;0.10;;;;;;;13.91;73.29;97367.09;8015703;29;20291;-80
2022/10/01 15:10:57;;;;;;;0.00;0.00;;;;;;;14.02;72.71;97358.59;8032044;29;20230;-80
2022/10/01 15:15:00;;;;;;;0.10;0.10;;;;;;;14.02;72.42;97367.22;8030903;29;20284;-80
2022/10/01 15:19:07;;;;;;;0.10;0.10;;;;;;;14.05;72.67;97379.19;8031079;29;20279;-80
2022/10/01 15:23:11;;;;;;;0.10;0.10;;;;;;;13.95;72.68;97370.34;8030923;29;20258;-80
2022/10/01 15:27:18;;;;;;;0.00;0.00;;;;;;;14.19;71.85;97376.50;8030989;29;20242;-80
2022/10/01 15:31:21;;;;;;;0.10;0.10;;;;;;;14.16;72.04;97373.25;8030749;29;20258;-79
2022/10/01 15:35:25;;;;;;;0.10;0.10;;;;;;;14.23;71.48;97366.69;8030529;29;20468;-79
2022/10/01 15:39:31;;;;;;;0.00;0.00;;;;;;;14.25;71.03;97376.06;8030405;29;20262;-79
2022/10/01 15:43:36;;;;;;;0.10;0.10;;;;;;;14.23;71.72;97372.72;8030372;29;20247;-80
2022/10/01 15:47:40;;;;;;;0.07;0.07;;;;;;;14.32;70.98;97370.44;8030317;29;20246;-80
2022/10/01 15:56:15;;;;;;;0.10;0.10;;;;;;;14.26;71.54;97376.91;8030106;29;20243;-80
2022/10/01 16:00:24;;;;;;;0.10;0.10;;;;;;;14.32;71.31;97391.25;8030193;29;20235;-81
2022/10/01 16:04:27;;;;;;;0.10;0.10;;;;;;;14.32;71.49;97386.91;8029738;29;20242;-80
2022/10/01 16:08:34;;;;;;;0.00;0.00;;;;;;;14.33;71.80;97403.34;8030513;29;20243;-79
2022/10/01 16:12:37;;;;;;;0.00;0.00;;;;;;;14.30;71.42;97398.34;8030451;29;20435;-80
2022/10/01 16:16:41;;;;;;;0.00;0.00;;;;;;;14.33;71.75;97400.75;8029933;29;20242;-80
2022/10/01 16:20:44;;;;;;;0.07;0.07;;;;;;;14.30;71.27;97395.75;8020139;29;20249;-80
2022/10/01 16:24:55;;;;;;;0.00;0.00;;;;;;;14.36;71.30;97405.75;8029507;29;20533;-79
2022/10/01 16:28:59;;;;;;;0.10;0.10;;;;;;;14.29;70.76;97407.94;8029355;29;20231;-80
2022/10/01 16:33:04;;;;;;;0.00;0.00;;;;;;;14.24;71.58;97407.41;8029378;29;20242;-80
2022/10/01 16:41:35;;;;;;;0.00;0.00;;;;;;;14.31;70.88;97413.88;8003908;29;20250;-75
2022/10/01 16:45:41;;;;;;;0.00;0.00;;;;;;;14.35;70.61;97420.53;8005454;29;20292;-75
2022/10/01 16:49:46;;;;;;;0.00;0.00;;;;;;;14.36;70.95;97431.81;8005076;29;20239;-75
2022/10/01 16:53:49;;;;;;;0.07;0.07;;;;;;;14.28;70.66;97433.16;8005172;29;20427;-75
2022/10/01 16:57:53;;;;;;;0.07;0.07;;;;;;;14.37;70.48;97433.47;8004980;29;20236;-77
2022/10/01 17:01:57;;;;;;;0.00;0.00;;;;;;;14.31;70.77;97439.09;8004884;29;20245;-75
2022/10/01 17:06:01;;;;;;;0.00;0.00;;;;;;;14.43;70.27;97444.31;8004845;29;20527;-75
2022/10/01 17:10:05;;;;;;;0.10;0.10;;;;;;;14.30;70.78;97463.47;8003971;29;20246;-76
2022/10/01 17:14:15;;;;;;;0.10;0.10;;;;;;;14.45;70.57;97462.44;8004592;29;20251;-76
2022/10/01 17:18:18;;;;;;;0.00;0.00;;;;;;;14.48;70.79;97476.06;8004708;29;20242;-76
2022/10/01 17:22:23;;;;;;;0.00;0.00;;;;;;;14.25;71.02;97469.81;8004338;29;20235;-76
2022/10/01 17:26:25;;;;;;;0.00;0.00;;;;;;;14.48;70.80;97476.06;8004066;29;20239;-74
2022/10/01 17:30:28;;;;;;;0.00;0.00;;;;;;;14.57;70.35;97479.03;8004142;29;20244;-75
2022/10/01 17:34:33;;;;;;;0.07;0.07;;;;;;;14.47;70.72;97497.03;8004230;29;20239;-76
2022/10/01 17:38:39;;;;;;;0.00;0.00;;;;;;;14.45;70.37;97493.72;8003599;29;20235;-76
2022/10/01 17:42:41;;;;;;;0.10;0.10;;;;;;;14.40;70.61;97507.03;8003925;29;20239;-76
2022/10/01 17:46:44;;;;;;;0.00;0.00;;;;;;;14.42;70.58;97509.53;8003119;29;20419;-76
2022/10/01 17:50:47;;;;;;;0.00;0.00;;;;;;;14.43;70.62;97511.19;8003756;29;20258;-76
2022/10/01 17:54:51;;;;;;;0.00;0.00;;;;;;;14.41;70.43;97518.28;8003381;29;20243;-76
2022/10/01 17:58:54;;;;;;;0.00;0.00;;;;;;;14.54;70.44;97532.16;8003566;29;20238;-76
2022/10/01 18:02:59;;;;;;;0.00;0.00;;;;;;;14.51;70.45;97527.16;8003673;29;20258;-75
2022/10/01 18:07:06;;;;;;;0.00;0.00;;;;;;;14.45;70.68;97517.16;8003067;29;20318;-76
2022/10/01 18:11:11;;;;;;;0.00;0.00;;;;;;;14.53;70.49;97537.50;8003062;29;20612;-76
2022/10/01 18:15:17;;;;;;;0.00;0.00;;;;;;;14.45;70.83;97538.81;8002841;29;20296;-76
2022/10/01 18:19:20;;;;;;;0.00;0.00;;;;;;;14.44;71.18;97549.34;8002700;29;20235;-76
2022/10/01 18:23:42;;;;;;;0.00;0.00;;;;;;;14.37;71.36;97553.28;8002069;29;20388;-76
2022/10/01 18:27:48;;;;;;;0.00;0.00;;;;;;;14.41;70.84;97560.81;8002706;29;20251;-76
2022/10/01 18:31:54;;;;;;;0.10;0.10;;;;;;;14.45;71.20;97561.44;8002603;29;20267;-76
2022/10/01 18:35:57;;;;;;;0.00;0.00;;;;;;;14.35;71.33;97558.59;8002358;29;20260;-75
2022/10/01 18:40:05;;;;;;;0.00;0.00;;;;;;;14.39;71.48;97561.81;8002144;29;20231;-76
2022/10/01 18:44:10;;;;;;;0.10;0.10;;;;;;;14.27;71.60;97566.09;8002264;29;20255;-75
2022/10/01 18:48:37;;;;;;;0.10;0.10;;;;;;;14.36;71.67;97578.50;8001895;29;20236;-76
2022/10/01 18:52:47;;;;;;;0.00;0.00;;;;;;;14.45;71.29;97577.06;8001640;29;20238;-75
2022/10/01 18:56:54;;;;;;;0.03;0.03;;;;;;;14.52;71.11;97593.13;8001610;29;20250;-76
2022/10/01 19:01:05;;;;;;;0.10;0.10;;;;;;;14.37;71.61;97593.19;8001791;29;20544;-75
2022/10/01 19:05:39;;;;;;;0.03;0.03;;;;;;;14.43;70.95;97599.75;8001816;29;20235;-76
2022/10/01 19:09:50;;;;;;;0.00;0.00;;;;;;;14.49;71.05;97609.81;7989803;29;20245;-76
2022/10/01 19:13:58;;;;;;;0.00;0.00;;;;;;;14.37;71.22;97614.03;8001689;29;20431;-76
2022/10/01 19:18:14;;;;;;;0.00;0.00;;;;;;;14.46;70.88;97621.25;8001471;29;20272;-75
2022/10/01 19:22:22;;;;;;;0.03;0.03;;;;;;;14.41;71.23;97619.88;8001293;29;20231;-76
2022/10/01 19:26:28;;;;;;;0.00;0.00;;;;;;;14.30;71.84;97643.19;8001537;29;20235;-75
2022/10/01 19:30:34;;;;;;;0.00;0.00;;;;;;;14.45;71.09;97640.44;8000870;29;20519;-76
2022/10/01 19:34:45;;;;;;;0.10;0.10;;;;;;;14.43;71.18;97657.94;8001074;29;20251;-76
2022/10/01 19:38:49;;;;;;;0.00;0.00;;;;;;;14.60;70.64;97662.09;8001008;29;20625;-75